Time;durP1;ratioP1;P1;durP2;ratioP2;P2;SDS_P1;SDS_P2;PMS_P1;PMS_P2;Temp;Humidity;BMP_temperature;BMP_pressure;BME280_temperature;BME280_humidity;BME280_pressure;Samples;Min_cycle;Max_cycle;Signal;HPM_P1;HPM_P2
2022/04/07 00:01:52;;;;;;;0.10;0.10;;;;;;;10.64;100.00;98307.69;5027775;28;20045;-61
2022/04/07 00:04:17;;;;;;;0.28;0.28;;;;;;;10.59;100.00;98300.06;5057069;22;20048;-69
2022/04/07 00:06:43;;;;;;;0.10;0.10;;;;;;;10.62;100.00;98286.59;5065984;28;20059;-69
2022/04/07 00:09:08;;;;;;;0.10;0.10;;;;;;;10.57;100.00;98270.91;5068130;28;20025;-70
2022/04/07 00:11:33;;;;;;;0.50;0.17;;;;;;;10.44;100.00;98283.44;5070315;28;20043;-70
2022/04/07 00:13:59;;;;;;;0.10;0.10;;;;;;;10.58;100.00;98285.13;5069668;28;20188;-70
2022/04/07 00:16:24;;;;;;;0.10;0.10;;;;;;;10.68;100.00;98273.41;5052153;28;20044;-70
2022/04/07 00:18:50;;;;;;;0.10;0.10;;;;;;;10.68;100.00;98274.13;5058299;28;20033;-70
2022/04/07 00:21:24;;;;;;;0.10;0.10;;;;;;;10.79;99.34;98268.56;5065646;28;20064;-69
2022/04/07 00:23:54;;;;;;;0.10;0.10;;;;;;;10.80;98.97;98284.28;5071049;28;20027;-70
2022/04/07 00:26:20;;;;;;;0.10;0.10;;;;;;;10.85;99.06;98275.00;5071182;28;20036;-70
2022/04/07 00:28:45;;;;;;;0.30;0.30;;;;;;;10.65;99.52;98269.59;5052678;28;20138;-70
2022/04/07 00:31:11;;;;;;;0.32;0.30;;;;;;;10.60;100.00;98269.31;5064132;28;20022;-70
2022/04/07 00:33:38;;;;;;;0.10;0.10;;;;;;;10.63;100.00;98263.88;5070931;28;20611;-70
2022/04/07 00:36:05;;;;;;;0.22;0.22;;;;;;;10.77;99.66;98260.13;5066425;28;20107;-70
2022/04/07 00:38:30;;;;;;;0.10;0.10;;;;;;;10.91;98.72;98251.78;5070270;28;20036;-70
2022/04/07 00:40:56;;;;;;;1.85;0.68;;;;;;;10.89;98.75;98246.06;5071134;28;20041;-70
2022/04/07 00:43:48;;;;;;;0.20;0.20;;;;;;;10.92;99.04;98237.13;5062349;28;20032;-70
2022/04/07 00:46:14;;;;;;;0.10;0.10;;;;;;;10.96;99.47;98242.44;5056867;28;20040;-70
2022/04/07 00:48:39;;;;;;;0.10;0.10;;;;;;;10.94;99.67;98237.47;5055614;28;20040;-69
2022/04/07 00:51:05;;;;;;;0.30;0.30;;;;;;;10.94;99.18;98231.34;5059550;28;20025;-70
2022/04/07 00:53:30;;;;;;;0.10;0.10;;;;;;;10.89;99.04;98222.59;5068722;28;20549;-70
2022/04/07 00:56:00;;;;;;;0.10;0.10;;;;;;;11.04;98.38;98225.72;5057900;28;20469;-70
2022/04/07 00:58:28;;;;;;;0.10;0.10;;;;;;;11.02;98.99;98230.00;5060078;28;20036;-70
2022/04/07 01:00:54;;;;;;;1.00;0.88;;;;;;;10.95;100.00;98219.41;5069388;28;20048;-70
2022/04/07 01:03:19;;;;;;;0.10;0.10;;;;;;;10.96;100.00;98218.97;5063481;28;20040;-70
2022/04/07 01:05:45;;;;;;;0.10;0.10;;;;;;;10.92;100.00;98201.41;5074741;28;20035;-70
2022/04/07 01:08:10;;;;;;;0.10;0.10;;;;;;;10.79;100.00;98207.41;5069778;28;20537;-70
2022/04/07 01:10:37;;;;;;;0.40;0.40;;;;;;;10.84;100.00;98200.75;5054359;28;20170;-70
2022/04/07 01:13:03;;;;;;;0.10;0.10;;;;;;;10.67;100.00;98199.19;5068885;28;20044;-70
2022/04/07 01:15:28;;;;;;;0.10;0.10;;;;;;;10.69;100.00;98194.16;5050727;28;20101;-70
2022/04/07 01:17:55;;;;;;;0.15;0.15;;;;;;;10.94;100.00;98199.03;5065754;28;20029;-70
2022/04/07 01:20:21;;;;;;;0.15;0.15;;;;;;;10.84;100.00;98192.69;5068799;28;20086;-70
2022/04/07 01:22:48;;;;;;;0.20;0.20;;;;;;;10.75;100.00;98179.03;5066897;28;20041;-70
2022/04/07 01:25:13;;;;;;;0.10;0.10;;;;;;;10.87;100.00;98176.47;5062261;28;20036;-70
2022/04/07 01:27:39;;;;;;;0.17;0.17;;;;;;;10.67;100.00;98156.13;5067971;28;20069;-70
2022/04/07 01:30:09;;;;;;;0.35;0.20;;;;;;;10.48;100.00;98160.38;5064089;28;20701;-70
2022/04/07 01:32:41;;;;;;;0.85;0.60;;;;;;;10.41;100.00;98160.53;5060121;28;20040;-70
2022/04/07 01:35:07;;;;;;;0.20;0.20;;;;;;;10.41;100.00;98154.38;5040776;28;20029;-70
2022/04/07 01:37:34;;;;;;;0.10;0.10;;;;;;;10.54;100.00;98153.34;5056246;28;20158;-70
2022/04/07 01:40:01;;;;;;;0.10;0.10;;;;;;;10.73;100.00;98155.25;5065455;28;20037;-70
2022/04/07 01:42:27;;;;;;;0.10;0.10;;;;;;;10.68;100.00;98147.63;5063472;28;20037;-70
2022/04/07 01:44:57;;;;;;;0.20;0.20;;;;;;;10.60;100.00;98135.53;5058737;28;20028;-70
2022/04/07 01:47:23;;;;;;;1.10;1.10;;;;;;;10.73;100.00;98131.00;5067194;28;20036;-70
2022/04/07 01:50:00;;;;;;;0.10;0.10;;;;;;;11.02;100.00;98141.13;5051430;28;20044;-70
2022/04/07 01:52:27;;;;;;;0.10;0.10;;;;;;;10.91;100.00;98125.25;5065403;28;20044;-70
2022/04/07 01:54:53;;;;;;;0.22;0.22;;;;;;;10.99;100.00;98113.13;5063229;28;20166;-70
2022/04/07 01:57:23;;;;;;;0.10;0.10;;;;;;;10.76;100.00;98116.72;5064939;28;20033;-70
2022/04/07 01:59:51;;;;;;;0.10;0.10;;;;;;;10.88;100.00;98113.38;5057926;28;20036;-70
2022/04/07 02:02:16;;;;;;;0.28;0.28;;;;;;;10.78;100.00;98110.94;5051132;28;20487;-70
2022/04/07 02:04:55;;;;;;;0.13;0.13;;;;;;;10.67;100.00;98103.06;5054003;28;20130;-70
2022/04/07 02:07:22;;;;;;;0.10;0.10;;;;;;;10.78;100.00;98094.78;5061503;28;20054;-70
2022/04/07 02:09:47;;;;;;;0.30;0.30;;;;;;;10.82;100.00;98095.44;5068943;28;20033;-70
2022/04/07 02:12:13;;;;;;;0.10;0.10;;;;;;;11.13;99.01;98104.72;5068349;28;20051;-70
2022/04/07 02:14:39;;;;;;;0.10;0.10;;;;;;;10.89;99.73;98101.44;5053597;28;20112;-70
2022/04/07 02:17:04;;;;;;;0.28;0.28;;;;;;;10.79;100.00;98086.28;5059014;28;20190;-70
2022/04/07 02:19:30;;;;;;;0.32;0.32;;;;;;;10.99;100.00;98086.22;5061570;28;20036;-70
2022/04/07 02:21:56;;;;;;;0.10;0.10;;;;;;;10.98;99.59;98078.53;5061102;28;20041;-70
2022/04/07 02:24:21;;;;;;;3.20;1.95;;;;;;;10.82;100.00;98071.19;5070605;28;20501;-71
2022/04/07 02:26:47;;;;;;;0.10;0.10;;;;;;;10.97;100.00;98058.19;5073409;28;20043;-70
2022/04/07 02:29:12;;;;;;;0.05;0.05;;;;;;;10.89;100.00;98061.06;5059031;28;20043;-70
2022/04/07 02:31:37;;;;;;;0.10;0.10;;;;;;;10.88;100.00;98053.38;5063454;28;20454;-70
2022/04/07 02:34:03;;;;;;;0.20;0.20;;;;;;;10.81;100.00;98067.00;5062171;28;20130;-70
2022/04/07 02:36:28;;;;;;;0.10;0.10;;;;;;;11.01;99.10;98056.16;5058772;28;20052;-70
2022/04/07 02:38:54;;;;;;;0.10;0.10;;;;;;;10.88;99.36;98048.75;5069137;28;20040;-70
2022/04/07 02:41:19;;;;;;;0.32;0.32;;;;;;;10.76;100.00;98046.72;5051209;28;20041;-70
2022/04/07 02:43:46;;;;;;;0.15;0.15;;;;;;;10.90;98.84;98034.84;5058912;28;20036;-70
2022/04/07 02:46:11;;;;;;;0.10;0.10;;;;;;;10.93;99.54;98044.81;5051674;28;20032;-70
2022/04/07 02:48:37;;;;;;;0.10;0.10;;;;;;;10.88;99.02;98029.91;5064668;28;20035;-70
2022/04/07 02:51:03;;;;;;;0.10;0.10;;;;;;;10.82;99.72;98023.50;5071498;28;20040;-70
2022/04/07 02:53:28;;;;;;;0.10;0.10;;;;;;;10.71;100.00;98023.00;5072658;28;20044;-70
2022/04/07 02:55:53;;;;;;;0.10;0.10;;;;;;;10.68;100.00;98023.81;5063646;28;20707;-70
2022/04/07 02:58:19;;;;;;;0.20;0.20;;;;;;;10.81;100.00;98000.47;5067130;28;20033;-70
2022/04/07 03:00:44;;;;;;;0.25;0.25;;;;;;;10.80;100.00;97998.94;5055173;28;20032;-70
2022/04/07 03:03:10;;;;;;;0.30;0.30;;;;;;;10.83;100.00;97994.66;5053276;28;20082;-70
2022/04/07 03:05:35;;;;;;;0.40;0.40;;;;;;;10.94;100.00;97997.84;5053108;28;20086;-70
2022/04/07 03:08:00;;;;;;;0.10;0.10;;;;;;;10.85;100.00;97995.75;5062061;28;20024;-70
2022/04/07 03:10:26;;;;;;;0.10;0.10;;;;;;;10.58;100.00;97984.50;5062564;28;20042;-70
2022/04/07 03:12:51;;;;;;;0.22;0.20;;;;;;;10.62;100.00;97970.94;5066926;28;20496;-70
2022/04/07 03:15:17;;;;;;;0.10;0.10;;;;;;;10.49;100.00;97970.84;5062310;28;20082;-70
2022/04/07 03:17:42;;;;;;;0.10;0.10;;;;;;;10.63;100.00;97961.69;5070397;28;20047;-70
2022/04/07 03:20:08;;;;;;;0.20;0.20;;;;;;;10.57;100.00;97955.28;5071072;28;20041;-70
2022/04/07 03:22:34;;;;;;;0.22;0.15;;;;;;;10.57;100.00;97958.75;5059043;28;20033;-70
2022/04/07 03:24:59;;;;;;;0.10;0.10;;;;;;;10.85;100.00;97955.38;5071253;28;20107;-70
2022/04/07 03:27:25;;;;;;;0.10;0.10;;;;;;;10.85;100.00;97958.06;5064453;28;20031;-70
2022/04/07 03:29:50;;;;;;;0.57;0.57;;;;;;;10.79;99.85;97950.91;5065577;28;20485;-70
2022/04/07 03:32:15;;;;;;;0.10;0.10;;;;;;;10.78;100.00;97944.75;5052992;28;20033;-70
2022/04/07 03:34:41;;;;;;;0.10;0.10;;;;;;;10.93;98.67;97947.13;5057001;28;20444;-70
2022/04/07 03:37:06;;;;;;;0.10;0.10;;;;;;;10.75;99.47;97920.63;5059823;28;20044;-70
2022/04/07 03:39:33;;;;;;;0.47;0.40;;;;;;;10.86;98.85;97916.50;5059603;28;20033;-70
2022/04/07 03:42:18;;;;;;;0.20;0.20;;;;;;;11.03;97.86;97919.16;5057682;28;20082;-70
2022/04/07 03:44:44;;;;;;;0.20;0.20;;;;;;;10.92;97.16;97914.03;4975530;28;20050;-70
2022/04/07 03:47:09;;;;;;;0.10;0.10;;;;;;;10.81;99.03;97921.63;5007454;28;20120;-70
2022/04/07 03:49:35;;;;;;;0.55;0.55;;;;;;;10.90;97.89;97911.00;5009347;28;20552;-70
2022/04/07 03:52:00;;;;;;;0.75;0.75;;;;;;;11.01;98.00;97911.50;5009356;28;20060;-70
2022/04/07 03:54:25;;;;;;;0.25;0.25;;;;;;;11.10;96.71;97902.81;5014155;28;20437;-70
2022/04/07 03:56:51;;;;;;;0.10;0.10;;;;;;;11.02;97.10;97883.38;5014247;28;20049;-70
2022/04/07 03:59:16;;;;;;;0.10;0.10;;;;;;;10.84;97.73;97881.16;5009745;28;20125;-70
2022/04/07 04:01:44;;;;;;;1.55;0.63;;;;;;;10.92;97.58;97879.03;5009241;28;20494;-71
2022/04/07 04:04:10;;;;;;;0.10;0.10;;;;;;;10.99;97.32;97880.78;5005177;28;20044;-70
2022/04/07 04:06:35;;;;;;;0.35;0.28;;;;;;;11.20;95.44;97891.75;5006739;28;20790;-70
2022/04/07 04:09:02;;;;;;;0.20;0.20;;;;;;;11.12;96.06;97878.91;4995111;28;20042;-70
2022/04/07 04:11:27;;;;;;;0.20;0.20;;;;;;;10.91;96.86;97872.16;5010487;28;20038;-71
2022/04/07 04:13:53;;;;;;;0.57;0.47;;;;;;;10.98;96.96;97871.94;4977070;28;20454;-70
2022/04/07 04:16:19;;;;;;;0.10;0.10;;;;;;;10.89;97.16;97855.66;5006888;28;20045;-70
2022/04/07 04:18:44;;;;;;;0.00;0.00;;;;;;;11.10;96.38;97865.88;5007245;28;20064;-70
2022/04/07 04:21:10;;;;;;;0.10;0.10;;;;;;;11.07;95.93;97849.81;5023954;28;20052;-70
2022/04/07 04:23:35;;;;;;;0.52;0.52;;;;;;;10.88;97.00;97854.91;5070834;28;20040;-70
2022/04/07 04:26:01;;;;;;;0.10;0.10;;;;;;;11.08;96.13;97862.84;5066787;28;20044;-70
2022/04/07 04:28:27;;;;;;;0.20;0.20;;;;;;;11.04;97.14;97861.41;5070226;28;20033;-70
2022/04/07 04:30:52;;;;;;;0.10;0.10;;;;;;;11.21;96.12;97850.16;5070990;28;20376;-70
2022/04/07 04:33:18;;;;;;;0.10;0.10;;;;;;;11.03;96.92;97855.28;5052030;28;20179;-70
2022/04/07 04:35:44;;;;;;;0.08;0.08;;;;;;;11.00;97.02;97845.38;5051796;28;20020;-70
2022/04/07 04:38:09;;;;;;;0.30;0.30;;;;;;;11.14;96.89;97849.59;5068808;28;20280;-70
2022/04/07 04:40:35;;;;;;;0.20;0.20;;;;;;;11.00;97.48;97844.59;5067059;28;20115;-70
2022/04/07 04:43:00;;;;;;;0.13;0.13;;;;;;;10.98;98.21;97842.34;5055904;28;20032;-70
2022/04/07 04:45:26;;;;;;;0.10;0.10;;;;;;;10.94;97.98;97840.94;5069761;28;20043;-70
2022/04/07 04:47:52;;;;;;;0.20;0.20;;;;;;;11.10;97.22;97832.78;5058108;28;20032;-70
2022/04/07 04:50:19;;;;;;;0.10;0.10;;;;;;;11.12;97.89;97835.81;5055047;28;20028;-70
2022/04/07 04:52:44;;;;;;;0.10;0.10;;;;;;;10.90;99.87;97828.31;5064128;28;20112;-70
2022/04/07 04:55:10;;;;;;;0.15;0.15;;;;;;;10.93;100.00;97831.34;5053960;28;20401;-70
2022/04/07 04:57:36;;;;;;;0.10;0.10;;;;;;;10.97;100.00;97832.00;5056167;28;20035;-70
2022/04/07 05:00:03;;;;;;;0.10;0.10;;;;;;;10.94;100.00;97825.53;5069702;28;20513;-70
2022/04/07 05:02:29;;;;;;;0.10;0.10;;;;;;;10.86;100.00;97824.97;5057610;28;20043;-70
2022/04/07 05:04:54;;;;;;;0.00;0.00;;;;;;;10.74;100.00;97812.22;5068080;28;20045;-70
2022/04/07 05:07:20;;;;;;;0.00;0.00;;;;;;;10.55;100.00;97815.78;5051082;28;20087;-70
2022/04/07 05:09:46;;;;;;;0.10;0.10;;;;;;;10.47;100.00;97806.38;5048103;28;20843;-70
2022/04/07 05:12:11;;;;;;;0.10;0.10;;;;;;;10.55;100.00;97807.72;5070140;28;20496;-70
2022/04/07 05:14:37;;;;;;;0.40;0.40;;;;;;;10.72;100.00;97798.41;5069560;28;20505;-70
2022/04/07 05:17:03;;;;;;;0.10;0.10;;;;;;;10.69;100.00;97788.53;5069649;28;20032;-70
2022/04/07 05:19:28;;;;;;;0.10;0.10;;;;;;;10.66;100.00;97789.38;5062023;28;20074;-70
2022/04/07 05:21:53;;;;;;;1.52;0.63;;;;;;;10.64;100.00;97789.06;5069401;28;20412;-70
2022/04/07 05:24:19;;;;;;;0.00;0.00;;;;;;;10.61;100.00;97783.75;5069731;28;20541;-70
2022/04/07 05:26:46;;;;;;;0.10;0.10;;;;;;;10.62;100.00;97780.66;5053762;28;20097;-70
2022/04/07 05:29:11;;;;;;;0.10;0.10;;;;;;;10.50;100.00;97775.19;5060465;28;20074;-71
2022/04/07 05:31:37;;;;;;;0.15;0.15;;;;;;;10.56;100.00;97768.88;5069731;28;20036;-70
2022/04/07 05:34:02;;;;;;;0.10;0.10;;;;;;;10.41;100.00;97767.75;5060739;28;20094;-71
2022/04/07 05:36:28;;;;;;;0.10;0.10;;;;;;;10.59;100.00;97751.13;5054774;28;20029;-70
2022/04/07 05:38:53;;;;;;;0.10;0.10;;;;;;;10.62;100.00;97761.03;5057920;28;20538;-71
2022/04/07 05:41:19;;;;;;;0.10;0.10;;;;;;;10.60;100.00;97769.56;5064161;28;20023;-71
2022/04/07 05:43:44;;;;;;;0.30;0.30;;;;;;;10.67;100.00;97774.72;5052889;28;20032;-71
2022/04/07 05:46:10;;;;;;;0.10;0.10;;;;;;;10.56;100.00;97768.13;5068777;28;20036;-71
2022/04/07 05:48:35;;;;;;;0.10;0.10;;;;;;;10.41;100.00;97754.31;5068067;28;20119;-70
2022/04/07 05:51:01;;;;;;;0.70;0.40;;;;;;;10.61;100.00;97744.13;5058704;28;20039;-71
2022/04/07 05:53:27;;;;;;;0.10;0.10;;;;;;;10.82;100.00;97735.47;5070674;28;20036;-71
2022/04/07 05:55:52;;;;;;;0.10;0.10;;;;;;;10.87;100.00;97729.56;5064169;28;20075;-70
2022/04/07 05:58:19;;;;;;;0.10;0.10;;;;;;;10.95;100.00;97734.75;5057065;28;20097;-70
2022/04/07 06:00:45;;;;;;;0.10;0.10;;;;;;;11.00;100.00;97720.75;5064243;28;20075;-71
2022/04/07 06:03:10;;;;;;;0.10;0.10;;;;;;;10.97;100.00;97706.22;5059717;28;20064;-70
2022/04/07 06:05:36;;;;;;;0.10;0.10;;;;;;;11.00;100.00;97702.66;5107512;22;20072;-60
2022/04/07 06:08:02;;;;;;;0.10;0.10;;;;;;;10.97;100.00;97700.06;5033420;28;20037;-58
2022/04/07 06:10:29;;;;;;;0.10;0.10;;;;;;;11.00;100.00;97694.56;5042527;28;20116;-60
2022/04/07 06:12:54;;;;;;;0.10;0.10;;;;;;;11.06;100.00;97692.09;5022553;28;21184;-59
2022/04/07 06:15:21;;;;;;;0.10;0.10;;;;;;;10.87;100.00;97691.13;5025961;28;20025;-59
2022/04/07 06:17:47;;;;;;;0.30;0.30;;;;;;;11.04;100.00;97686.38;5024178;28;20559;-60
2022/04/07 06:20:13;;;;;;;0.10;0.10;;;;;;;11.02;100.00;97684.13;5026600;28;20116;-59
2022/04/07 06:22:39;;;;;;;0.20;0.20;;;;;;;11.06;100.00;97674.00;5030001;28;20053;-60
2022/04/07 06:25:06;;;;;;;0.30;0.30;;;;;;;11.02;100.00;97681.44;5030682;28;20036;-60
2022/04/07 06:27:43;;;;;;;0.10;0.10;;;;;;;10.88;100.00;97671.06;5016085;28;20353;-60
2022/04/07 06:30:11;;;;;;;0.20;0.20;;;;;;;10.71;100.00;97675.06;5026174;28;20043;-61
2022/04/07 06:32:38;;;;;;;0.10;0.10;;;;;;;10.66;100.00;97670.97;5031084;28;20046;-60
2022/04/07 06:35:05;;;;;;;0.10;0.10;;;;;;;10.85;100.00;97661.94;5012615;28;20080;-61
2022/04/07 06:37:30;;;;;;;0.05;0.05;;;;;;;11.05;100.00;97647.50;5022844;28;20033;-61
2022/04/07 06:40:03;;;;;;;0.10;0.10;;;;;;;11.07;100.00;97643.19;5019212;28;20476;-60
2022/04/07 06:42:29;;;;;;;0.10;0.10;;;;;;;10.89;100.00;97638.38;5023518;28;20045;-60
2022/04/07 06:44:55;;;;;;;0.20;0.20;;;;;;;11.23;98.89;97626.16;5016025;28;20113;-60
2022/04/07 06:47:24;;;;;;;0.10;0.10;;;;;;;11.04;100.00;97619.06;5020215;28;20566;-60
2022/04/07 06:49:53;;;;;;;0.17;0.17;;;;;;;11.08;100.00;97614.31;5017747;28;20615;-58
2022/04/07 06:52:19;;;;;;;0.20;0.20;;;;;;;11.30;99.57;97615.16;5021436;28;20065;-61
2022/04/07 06:54:45;;;;;;;0.10;0.10;;;;;;;11.40;99.23;97608.69;5014939;28;20428;-60
2022/04/07 06:57:10;;;;;;;0.50;0.50;;;;;;;11.50;98.36;97602.16;5013797;28;20117;-60
2022/04/07 06:59:36;;;;;;;0.10;0.10;;;;;;;11.68;96.01;97602.38;5015280;28;20049;-61
2022/04/07 07:02:01;;;;;;;0.10;0.10;;;;;;;11.43;96.33;97586.25;5025572;28;20045;-60
2022/04/07 07:04:27;;;;;;;0.10;0.10;;;;;;;11.26;97.43;97591.03;5019879;28;20048;-59
2022/04/07 07:06:52;;;;;;;0.10;0.10;;;;;;;11.29;97.52;97586.72;5020108;28;20037;-60
2022/04/07 07:09:18;;;;;;;0.00;0.00;;;;;;;11.39;96.79;97582.91;5023298;28;20018;-60
2022/04/07 07:11:43;;;;;;;0.10;0.10;;;;;;;11.19;97.00;97571.66;5016175;28;20067;-61
2022/04/07 07:14:08;;;;;;;0.00;0.00;;;;;;;11.31;96.51;97560.09;5001706;28;20049;-61
2022/04/07 07:16:34;;;;;;;0.10;0.10;;;;;;;11.44;95.60;97550.06;5018942;28;20176;-61
2022/04/07 07:18:59;;;;;;;0.10;0.10;;;;;;;11.44;95.21;97526.53;5014453;28;20033;-59
2022/04/07 07:21:25;;;;;;;0.25;0.25;;;;;;;11.56;94.64;97519.59;5011204;28;20029;-61
2022/04/07 07:23:50;;;;;;;0.10;0.10;;;;;;;11.43;95.57;97516.19;5022413;28;20172;-59
2022/04/07 07:26:16;;;;;;;0.22;0.22;;;;;;;11.30;96.20;97502.78;5028531;28;20037;-58
2022/04/07 07:28:42;;;;;;;0.30;0.30;;;;;;;11.44;95.62;97501.53;5029242;28;20029;-61
2022/04/07 07:31:07;;;;;;;0.10;0.10;;;;;;;11.58;94.16;97509.13;5027439;28;20377;-62
2022/04/07 07:33:32;;;;;;;0.10;0.10;;;;;;;11.37;95.58;97491.00;5007605;28;20039;-60
2022/04/07 07:35:58;;;;;;;0.13;0.13;;;;;;;11.38;95.19;97504.03;5007339;28;20049;-60
2022/04/07 07:38:23;;;;;;;0.10;0.10;;;;;;;11.57;93.10;97491.47;5027825;28;20500;-61
2022/04/07 07:40:49;;;;;;;0.10;0.10;;;;;;;11.39;95.00;97475.16;5026920;28;20381;-60
2022/04/07 07:43:14;;;;;;;0.10;0.10;;;;;;;11.52;95.00;97473.13;5009286;28;20095;-61
2022/04/07 07:45:40;;;;;;;0.30;0.30;;;;;;;11.53;95.09;97464.63;5008691;28;20065;-60
2022/04/07 07:48:06;;;;;;;0.10;0.10;;;;;;;11.56;95.63;97449.50;5010338;28;20036;-61
2022/04/07 07:50:31;;;;;;;0.40;0.40;;;;;;;11.64;95.31;97431.91;5005234;28;20026;-59
2022/04/07 07:52:56;;;;;;;0.03;0.03;;;;;;;11.67;94.67;97429.09;5014107;28;20288;-59
2022/04/07 07:55:22;;;;;;;0.10;0.10;;;;;;;11.63;95.04;97427.72;5018527;28;20029;-57
2022/04/07 07:57:48;;;;;;;0.20;0.20;;;;;;;11.50;95.47;97419.69;4990903;28;20033;-61
2022/04/07 08:00:16;;;;;;;0.10;0.10;;;;;;;11.49;96.59;97406.66;5012181;28;20057;-59
2022/04/07 08:02:43;;;;;;;0.10;0.10;;;;;;;11.31;97.69;97395.75;5012602;28;20061;-60
2022/04/07 08:05:09;;;;;;;0.25;0.25;;;;;;;11.24;98.41;97380.63;5017316;28;20513;-60
2022/04/07 08:07:41;;;;;;;0.10;0.10;;;;;;;11.24;98.94;97379.88;5016800;28;20017;-60
2022/04/07 08:10:07;;;;;;;0.03;0.03;;;;;;;11.29;99.31;97379.28;5014104;28;20497;-58
2022/04/07 08:12:33;;;;;;;0.10;0.10;;;;;;;11.38;98.40;97373.97;5019362;28;20038;-60
2022/04/07 08:14:58;;;;;;;0.70;0.22;;;;;;;11.41;98.72;97376.53;5016766;28;20052;-60
2022/04/07 08:17:24;;;;;;;0.10;0.10;;;;;;;11.50;96.63;97365.03;5018855;28;20403;-59
2022/04/07 08:19:49;;;;;;;0.08;0.08;;;;;;;11.33;98.37;97361.06;5016782;28;20029;-60
2022/04/07 08:22:15;;;;;;;0.10;0.10;;;;;;;11.33;97.52;97339.50;5015061;28;20076;-60
2022/04/07 08:24:40;;;;;;;0.10;0.10;;;;;;;11.32;97.97;97341.47;5019841;28;20055;-61
2022/04/07 08:27:06;;;;;;;0.10;0.10;;;;;;;11.06;100.00;97356.25;5018650;28;20037;-58
2022/04/07 08:29:32;;;;;;;0.10;0.10;;;;;;;11.04;100.00;97350.56;5014601;28;20547;-58
2022/04/07 08:31:58;;;;;;;0.10;0.10;;;;;;;11.12;100.00;97338.34;5013898;28;20026;-59
2022/04/07 08:34:25;;;;;;;0.10;0.10;;;;;;;11.17;100.00;97328.97;5015083;28;20030;-59
2022/04/07 08:36:51;;;;;;;0.10;0.10;;;;;;;11.06;100.00;97323.19;5017926;28;20029;-60
2022/04/07 08:39:17;;;;;;;0.20;0.20;;;;;;;11.16;100.00;97322.81;5020743;28;20036;-61
2022/04/07 08:41:45;;;;;;;0.10;0.10;;;;;;;11.03;100.00;97316.00;5014230;28;20044;-60
2022/04/07 08:44:12;;;;;;;0.08;0.08;;;;;;;11.11;100.00;97301.09;5015205;28;20052;-62
2022/04/07 08:46:39;;;;;;;0.10;0.10;;;;;;;11.34;100.00;97309.44;5011042;28;20100;-61
2022/04/07 08:49:06;;;;;;;0.00;0.00;;;;;;;10.98;100.00;97293.09;5013864;28;20457;-60
2022/04/07 08:51:32;;;;;;;0.10;0.10;;;;;;;10.99;100.00;97299.22;5018642;28;20042;-60
2022/04/07 08:53:59;;;;;;;0.00;0.00;;;;;;;11.13;100.00;97285.25;5019792;28;20072;-59
2022/04/07 08:56:25;;;;;;;0.10;0.10;;;;;;;10.90;100.00;97292.59;4996996;28;20038;-60
2022/04/07 08:58:50;;;;;;;0.10;0.10;;;;;;;11.03;100.00;97287.16;4994763;28;20056;-57
2022/04/07 09:01:16;;;;;;;0.20;0.20;;;;;;;11.07;100.00;97278.94;5010834;28;21238;-61
2022/04/07 09:03:43;;;;;;;0.55;0.55;;;;;;;11.15;100.00;97253.97;5004245;28;20567;-62
2022/04/07 09:06:09;;;;;;;0.10;0.10;;;;;;;10.85;100.00;97252.78;5012018;28;20044;-58
2022/04/07 09:08:39;;;;;;;0.00;0.00;;;;;;;10.63;100.00;97257.44;5019600;28;20034;-60
2022/04/07 09:11:07;;;;;;;0.10;0.10;;;;;;;10.57;100.00;97275.31;5016086;28;20034;-59
2022/04/07 09:13:39;;;;;;;0.15;0.15;;;;;;;10.64;100.00;97248.19;4998735;28;20033;-60
2022/04/07 09:16:13;;;;;;;0.10;0.10;;;;;;;10.63;100.00;97237.84;4993870;28;20040;-60
2022/04/07 09:18:39;;;;;;;0.10;0.10;;;;;;;10.71;100.00;97309.81;5008733;28;20140;-60
2022/04/07 09:21:06;;;;;;;0.10;0.10;;;;;;;10.88;100.00;97370.34;5011819;28;20132;-57
2022/04/07 09:23:41;;;;;;;0.10;0.10;;;;;;;10.64;100.00;97347.75;5002325;28;21586;-60
2022/04/07 09:26:14;;;;;;;0.10;0.10;;;;;;;10.25;100.00;97350.97;5011038;28;20036;-58
2022/04/07 09:28:39;;;;;;;0.10;0.10;;;;;;;10.08;100.00;97346.88;5017967;28;20025;-60
2022/04/07 09:31:05;;;;;;;0.65;0.60;;;;;;;9.82;100.00;97353.44;5016713;28;20029;-59
2022/04/07 09:33:30;;;;;;;0.10;0.10;;;;;;;9.73;100.00;97353.34;5013489;28;20417;-60
2022/04/07 09:36:07;;;;;;;0.35;0.35;;;;;;;9.62;100.00;97352.94;5025817;28;20048;-57
2022/04/07 09:38:35;;;;;;;0.10;0.10;;;;;;;9.58;100.00;97344.22;5018192;28;20039;-58
2022/04/07 09:41:04;;;;;;;0.10;0.10;;;;;;;9.47;100.00;97354.50;5013560;28;20501;-59
2022/04/07 09:43:40;;;;;;;0.10;0.10;;;;;;;9.49;100.00;97349.47;5005528;28;20025;-61
2022/04/07 09:46:13;;;;;;;0.50;0.50;;;;;;;9.65;100.00;97352.06;5013827;28;20120;-60
2022/04/07 09:48:39;;;;;;;0.10;0.10;;;;;;;9.59;100.00;97334.97;5014200;28;20029;-60
2022/04/07 09:51:08;;;;;;;0.10;0.10;;;;;;;9.58;100.00;97342.25;5019045;28;20120;-59
2022/04/07 09:53:39;;;;;;;0.10;0.10;;;;;;;9.58;100.00;97336.91;5012600;28;20124;-59
2022/04/07 09:56:06;;;;;;;0.10;0.10;;;;;;;9.66;100.00;97340.13;5009247;28;20136;-59
2022/04/07 09:58:35;;;;;;;0.10;0.10;;;;;;;9.73;100.00;97337.22;5011951;28;20473;-59
2022/04/07 10:01:02;;;;;;;0.10;0.10;;;;;;;9.82;100.00;97361.50;4998110;28;20050;-60
2022/04/07 10:03:30;;;;;;;0.10;0.10;;;;;;;9.61;100.00;97365.59;4997900;28;20492;-60
2022/04/07 10:05:57;;;;;;;0.10;0.10;;;;;;;9.49;100.00;97352.16;5010630;28;20030;-57
2022/04/07 10:08:23;;;;;;;0.10;0.10;;;;;;;9.80;100.00;97355.81;5012275;28;20034;-61
2022/04/07 10:10:49;;;;;;;0.10;0.10;;;;;;;9.56;100.00;97338.53;5011944;28;20531;-61
2022/04/07 10:13:15;;;;;;;0.10;0.10;;;;;;;9.71;100.00;97326.16;5013407;28;20064;-60
2022/04/07 10:15:40;;;;;;;0.10;0.10;;;;;;;9.68;100.00;97327.00;5015320;28;20113;-59
2022/04/07 10:18:16;;;;;;;0.10;0.10;;;;;;;9.58;100.00;97323.47;5018587;28;20037;-60
2022/04/07 10:20:47;;;;;;;0.10;0.10;;;;;;;9.56;100.00;97317.75;5009975;28;20192;-58
2022/04/07 10:23:12;;;;;;;0.03;0.03;;;;;;;9.31;100.00;97319.72;5003955;28;20426;-59
2022/04/07 10:25:43;;;;;;;0.10;0.10;;;;;;;9.37;100.00;97302.63;5010075;28;20040;-58
2022/04/07 10:28:10;;;;;;;0.10;0.10;;;;;;;9.39;100.00;97304.91;5007061;28;20109;-59
2022/04/07 10:30:50;;;;;;;0.10;0.10;;;;;;;9.16;100.00;97307.84;5010341;28;20044;-60
2022/04/07 10:33:31;;;;;;;0.10;0.10;;;;;;;9.20;100.00;97309.25;5007996;28;20270;-61
2022/04/07 10:35:57;;;;;;;0.10;0.10;;;;;;;9.09;100.00;97298.09;5010703;28;20030;-60
2022/04/07 10:38:52;;;;;;;0.10;0.10;;;;;;;9.02;100.00;97304.41;5007371;28;20436;-59
2022/04/07 10:41:47;;;;;;;0.10;0.10;;;;;;;9.13;100.00;97295.28;4994897;28;20054;-63
2022/04/07 10:44:21;;;;;;;0.10;0.10;;;;;;;8.96;100.00;97327.56;4988026;28;20128;-61
2022/04/07 10:46:47;;;;;;;0.10;0.10;;;;;;;8.95;100.00;97301.94;5018860;28;20033;-61
2022/04/07 10:49:22;;;;;;;0.10;0.10;;;;;;;8.80;100.00;97316.16;5004722;28;20060;-59
2022/04/07 10:51:51;;;;;;;0.10;0.10;;;;;;;8.86;100.00;97304.50;5012961;28;20086;-60
2022/04/07 10:54:17;;;;;;;0.10;0.10;;;;;;;8.81;100.00;97299.63;5015774;28;20072;-59
2022/04/07 10:56:46;;;;;;;0.20;0.20;;;;;;;8.70;100.00;97288.44;5017770;28;20371;-60
2022/04/07 10:59:19;;;;;;;0.00;0.00;;;;;;;8.69;100.00;97291.56;4986421;28;20042;-61
2022/04/07 11:02:03;;;;;;;0.10;0.10;;;;;;;8.46;100.00;97297.91;5013990;28;20388;-58
2022/04/07 11:04:37;;;;;;;0.10;0.10;;;;;;;8.64;100.00;97295.50;5013563;28;20048;-60
2022/04/07 11:07:08;;;;;;;0.10;0.10;;;;;;;8.67;100.00;97278.56;5010259;28;20034;-60
2022/04/07 11:09:55;;;;;;;0.10;0.10;;;;;;;8.74;100.00;97253.47;4994857;28;20052;-59
2022/04/07 11:12:21;;;;;;;0.10;0.10;;;;;;;8.58;100.00;97256.97;5017365;28;20033;-61
2022/04/07 11:14:48;;;;;;;0.10;0.10;;;;;;;8.51;100.00;97251.81;5008989;28;20037;-60
2022/04/07 11:17:22;;;;;;;0.10;0.10;;;;;;;8.46;100.00;97248.91;5014877;28;20128;-60
2022/04/07 11:20:10;;;;;;;0.10;0.10;;;;;;;8.50;99.97;97214.69;5011249;28;20045;-61
2022/04/07 11:23:06;;;;;;;0.20;0.20;;;;;;;8.70;99.21;97178.47;5008698;28;20080;-61
2022/04/07 11:25:49;;;;;;;0.10;0.10;;;;;;;8.63;99.84;97215.47;5020204;28;20038;-61
2022/04/07 11:28:22;;;;;;;0.20;0.20;;;;;;;8.56;100.00;97226.38;5017216;28;20044;-60
2022/04/07 11:31:04;;;;;;;0.10;0.10;;;;;;;8.52;100.00;97201.59;5023455;28;20083;-58